sensor_id;sensor_type;location;lat;lon;timestamp;temperature;humidity
16643;DHT22;8435;52.184;5.406;2024-03-08T00:02:19;6.00;99.90
16643;DHT22;8435;52.184;5.406;2024-03-08T00:04:46;6.00;99.90
16643;DHT22;8435;52.184;5.406;2024-03-08T00:07:13;6.00;99.90
16643;DHT22;8435;52.184;5.406;2024-03-08T00:09:40;5.90;99.90
16643;DHT22;8435;52.184;5.406;2024-03-08T00:12:09;5.90;99.90
16643;DHT22;8435;52.184;5.406;2024-03-08T00:14:36;5.90;99.90
16643;DHT22;8435;52.184;5.406;2024-03-08T00:17:04;5.90;99.90
16643;DHT22;8435;52.184;5.406;2024-03-08T00:19:31;5.90;99.90
16643;DHT22;8435;52.184;5.406;2024-03-08T00:21:57;5.90;99.90
16643;DHT22;8435;52.184;5.406;2024-03-08T00:24:24;5.90;99.90
16643;DHT22;8435;52.184;5.406;2024-03-08T00:26:51;5.80;99.90
16643;DHT22;8435;52.184;5.406;2024-03-08T00:29:21;5.80;99.90
16643;DHT22;8435;52.184;5.406;2024-03-08T00:31:49;5.80;99.90
16643;DHT22;8435;52.184;5.406;2024-03-08T00:34:26;5.80;99.90
16643;DHT22;8435;52.184;5.406;2024-03-08T00:36:57;5.80;99.90
16643;DHT22;8435;52.184;5.406;2024-03-08T00:39:23;5.80;99.90
16643;DHT22;8435;52.184;5.406;2024-03-08T00:41:53;5.80;99.90
16643;DHT22;8435;52.184;5.406;2024-03-08T00:44:26;5.70;99.90
16643;DHT22;8435;52.184;5.406;2024-03-08T00:46:53;5.70;99.90
16643;DHT22;8435;52.184;5.406;2024-03-08T00:49:20;5.70;99.90
16643;DHT22;8435;52.184;5.406;2024-03-08T00:51:48;5.70;99.90
16643;DHT22;8435;52.184;5.406;2024-03-08T00:54:15;5.70;99.90
16643;DHT22;8435;52.184;5.406;2024-03-08T00:56:42;5.70;99.90
16643;DHT22;8435;52.184;5.406;2024-03-08T00:59:09;5.60;99.90
16643;DHT22;8435;52.184;5.406;2024-03-08T01:01:37;5.60;99.90
16643;DHT22;8435;52.184;5.406;2024-03-08T01:04:04;5.50;99.90
16643;DHT22;8435;52.184;5.406;2024-03-08T01:06:31;5.60;99.90
16643;DHT22;8435;52.184;5.406;2024-03-08T01:08:58;5.60;99.90
16643;DHT22;8435;52.184;5.406;2024-03-08T01:11:25;5.50;99.90
16643;DHT22;8435;52.184;5.406;2024-03-08T01:13:53;5.50;99.90
16643;DHT22;8435;52.184;5.406;2024-03-08T01:16:20;5.50;99.90
16643;DHT22;8435;52.184;5.406;2024-03-08T01:18:48;5.50;99.90
16643;DHT22;8435;52.184;5.406;2024-03-08T01:21:15;5.40;99.90
16643;DHT22;8435;52.184;5.406;2024-03-08T01:23:42;5.40;99.90
16643;DHT22;8435;52.184;5.406;2024-03-08T01:26:09;5.40;99.90
16643;DHT22;8435;52.184;5.406;2024-03-08T01:28:37;5.30;99.90
16643;DHT22;8435;52.184;5.406;2024-03-08T01:31:03;5.30;99.90
16643;DHT22;8435;52.184;5.406;2024-03-08T01:33:31;5.20;99.90
16643;DHT22;8435;52.184;5.406;2024-03-08T01:35:59;5.30;99.90
16643;DHT22;8435;52.184;5.406;2024-03-08T01:38:26;5.20;99.90
16643;DHT22;8435;52.184;5.406;2024-03-08T01:40:53;5.20;99.90
16643;DHT22;8435;52.184;5.406;2024-03-08T01:43:20;5.20;99.90
16643;DHT22;8435;52.184;5.406;2024-03-08T01:45:48;5.10;99.90
16643;DHT22;8435;52.184;5.406;2024-03-08T01:48:16;5.10;99.90
16643;DHT22;8435;52.184;5.406;2024-03-08T01:50:44;5.10;99.90
16643;DHT22;8435;52.184;5.406;2024-03-08T01:53:13;5.10;99.90
16643;DHT22;8435;52.184;5.406;2024-03-08T01:55:41;5.00;99.90
16643;DHT22;8435;52.184;5.406;2024-03-08T01:58:10;5.10;99.90
16643;DHT22;8435;52.184;5.406;2024-03-08T02:00:38;5.00;99.90
16643;DHT22;8435;52.184;5.406;2024-03-08T02:03:07;5.00;99.90
16643;DHT22;8435;52.184;5.406;2024-03-08T02:05:34;5.00;99.90
16643;DHT22;8435;52.184;5.406;2024-03-08T02:08:01;4.90;99.90
16643;DHT22;8435;52.184;5.406;2024-03-08T02:10:29;4.90;99.90
16643;DHT22;8435;52.184;5.406;2024-03-08T02:12:56;4.90;99.90
16643;DHT22;8435;52.184;5.406;2024-03-08T02:15:23;4.90;99.90
16643;DHT22;8435;52.184;5.406;2024-03-08T02:17:51;4.80;99.90
16643;DHT22;8435;52.184;5.406;2024-03-08T02:20:18;4.80;99.90
16643;DHT22;8435;52.184;5.406;2024-03-08T02:22:46;4.80;99.90
16643;DHT22;8435;52.184;5.406;2024-03-08T02:25:13;4.70;99.90
16643;DHT22;8435;52.184;5.406;2024-03-08T02:27:41;4.80;99.90
16643;DHT22;8435;52.184;5.406;2024-03-08T02:30:09;4.70;99.90
16643;DHT22;8435;52.184;5.406;2024-03-08T02:32:38;4.70;99.90
16643;DHT22;8435;52.184;5.406;2024-03-08T02:35:05;4.70;99.90
16643;DHT22;8435;52.184;5.406;2024-03-08T02:37:32;4.70;99.90
16643;DHT22;8435;52.184;5.406;2024-03-08T02:40:00;4.60;99.90
16643;DHT22;8435;52.184;5.406;2024-03-08T02:42:27;4.70;99.90
16643;DHT22;8435;52.184;5.406;2024-03-08T02:44:54;4.60;99.90
16643;DHT22;8435;52.184;5.406;2024-03-08T02:47:20;4.60;99.90
16643;DHT22;8435;52.184;5.406;2024-03-08T02:49:47;4.60;99.90
16643;DHT22;8435;52.184;5.406;2024-03-08T02:52:15;4.60;99.90
16643;DHT22;8435;52.184;5.406;2024-03-08T02:54:42;4.50;99.90
16643;DHT22;8435;52.184;5.406;2024-03-08T02:57:10;4.60;99.90
16643;DHT22;8435;52.184;5.406;2024-03-08T02:59:37;4.50;99.90
16643;DHT22;8435;52.184;5.406;2024-03-08T03:02:05;4.50;99.90
16643;DHT22;8435;52.184;5.406;2024-03-08T03:04:33;4.50;99.90
16643;DHT22;8435;52.184;5.406;2024-03-08T03:07:00;4.40;99.90
16643;DHT22;8435;52.184;5.406;2024-03-08T03:09:27;4.40;99.90
16643;DHT22;8435;52.184;5.406;2024-03-08T03:11:54;4.40;99.90
16643;DHT22;8435;52.184;5.406;2024-03-08T03:14:22;4.40;99.90
16643;DHT22;8435;52.184;5.406;2024-03-08T03:16:49;4.40;99.90
16643;DHT22;8435;52.184;5.406;2024-03-08T03:19:16;4.30;99.90
16643;DHT22;8435;52.184;5.406;2024-03-08T03:21:43;4.30;99.90
16643;DHT22;8435;52.184;5.406;2024-03-08T03:24:10;4.30;99.90
16643;DHT22;8435;52.184;5.406;2024-03-08T03:26:37;4.30;99.90
16643;DHT22;8435;52.184;5.406;2024-03-08T03:29:06;4.30;99.90
16643;DHT22;8435;52.184;5.406;2024-03-08T03:31:35;4.30;99.90
16643;DHT22;8435;52.184;5.406;2024-03-08T03:34:03;4.30;99.90
16643;DHT22;8435;52.184;5.406;2024-03-08T03:36:34;4.20;99.90
16643;DHT22;8435;52.184;5.406;2024-03-08T03:39:03;4.20;99.90
16643;DHT22;8435;52.184;5.406;2024-03-08T03:41:36;4.20;99.90
16643;DHT22;8435;52.184;5.406;2024-03-08T03:44:04;4.20;99.90
16643;DHT22;8435;52.184;5.406;2024-03-08T03:46:32;4.20;99.90
16643;DHT22;8435;52.184;5.406;2024-03-08T03:49:00;4.20;99.90
16643;DHT22;8435;52.184;5.406;2024-03-08T03:51:27;4.20;99.90
16643;DHT22;8435;52.184;5.406;2024-03-08T03:53:54;4.10;99.90
16643;DHT22;8435;52.184;5.406;2024-03-08T03:56:25;4.10;99.90
16643;DHT22;8435;52.184;5.406;2024-03-08T03:58:52;4.20;99.90
16643;DHT22;8435;52.184;5.406;2024-03-08T04:01:19;4.10;99.90
16643;DHT22;8435;52.184;5.406;2024-03-08T04:03:46;4.10;99.90
16643;DHT22;8435;52.184;5.406;2024-03-08T04:06:14;4.10;99.90
16643;DHT22;8435;52.184;5.406;2024-03-08T04:08:41;4.10;99.90
16643;DHT22;8435;52.184;5.406;2024-03-08T04:11:08;4.10;99.90
16643;DHT22;8435;52.184;5.406;2024-03-08T04:13:35;4.10;99.90
16643;DHT22;8435;52.184;5.406;2024-03-08T04:16:02;4.10;99.90
16643;DHT22;8435;52.184;5.406;2024-03-08T04:18:33;4.10;99.90
16643;DHT22;8435;52.184;5.406;2024-03-08T04:21:01;4.10;99.90
16643;DHT22;8435;52.184;5.406;2024-03-08T04:23:29;4.10;99.90
16643;DHT22;8435;52.184;5.406;2024-03-08T04:25:56;4.10;99.90
16643;DHT22;8435;52.184;5.406;2024-03-08T04:28:23;4.10;99.90
16643;DHT22;8435;52.184;5.406;2024-03-08T04:30:51;4.10;99.90
16643;DHT22;8435;52.184;5.406;2024-03-08T04:33:18;4.10;99.90
16643;DHT22;8435;52.184;5.406;2024-03-08T04:35:46;4.10;99.90
16643;DHT22;8435;52.184;5.406;2024-03-08T04:38:13;4.10;99.90
16643;DHT22;8435;52.184;5.406;2024-03-08T04:40:42;4.10;99.90
16643;DHT22;8435;52.184;5.406;2024-03-08T04:43:09;4.10;99.90
16643;DHT22;8435;52.184;5.406;2024-03-08T04:45:36;4.20;99.90
16643;DHT22;8435;52.184;5.406;2024-03-08T04:48:03;4.10;99.90
16643;DHT22;8435;52.184;5.406;2024-03-08T04:50:30;4.10;99.90
16643;DHT22;8435;52.184;5.406;2024-03-08T04:52:56;4.10;99.90
16643;DHT22;8435;52.184;5.406;2024-03-08T04:55:23;4.10;99.90
16643;DHT22;8435;52.184;5.406;2024-03-08T04:57:51;4.10;99.90
16643;DHT22;8435;52.184;5.406;2024-03-08T05:00:18;4.10;99.90
16643;DHT22;8435;52.184;5.406;2024-03-08T05:02:46;4.10;99.90
16643;DHT22;8435;52.184;5.406;2024-03-08T05:05:13;4.10;99.90
16643;DHT22;8435;52.184;5.406;2024-03-08T05:07:40;4.10;99.90
16643;DHT22;8435;52.184;5.406;2024-03-08T05:10:09;4.10;99.90
16643;DHT22;8435;52.184;5.406;2024-03-08T05:12:36;4.10;99.90
16643;DHT22;8435;52.184;5.406;2024-03-08T05:15:06;4.10;99.90
16643;DHT22;8435;52.184;5.406;2024-03-08T05:17:33;4.10;99.90
16643;DHT22;8435;52.184;5.406;2024-03-08T05:20:00;4.00;99.90
16643;DHT22;8435;52.184;5.406;2024-03-08T05:22:27;4.10;99.90
16643;DHT22;8435;52.184;5.406;2024-03-08T05:24:54;4.10;99.90
16643;DHT22;8435;52.184;5.406;2024-03-08T05:27:21;4.10;99.90
16643;DHT22;8435;52.184;5.406;2024-03-08T05:29:47;4.10;99.90
16643;DHT22;8435;52.184;5.406;2024-03-08T05:32:16;4.00;99.90
16643;DHT22;8435;52.184;5.406;2024-03-08T05:34:42;4.10;99.90
16643;DHT22;8435;52.184;5.406;2024-03-08T05:37:10;4.00;99.90
16643;DHT22;8435;52.184;5.406;2024-03-08T05:39:37;4.00;99.90
16643;DHT22;8435;52.184;5.406;2024-03-08T05:42:04;4.00;99.90
16643;DHT22;8435;52.184;5.406;2024-03-08T05:44:31;4.00;99.90
16643;DHT22;8435;52.184;5.406;2024-03-08T05:46:57;4.00;99.90
16643;DHT22;8435;52.184;5.406;2024-03-08T05:49:25;4.00;99.90
16643;DHT22;8435;52.184;5.406;2024-03-08T05:51:52;3.90;99.90
16643;DHT22;8435;52.184;5.406;2024-03-08T05:54:19;4.00;99.90
16643;DHT22;8435;52.184;5.406;2024-03-08T05:56:47;3.90;99.90
16643;DHT22;8435;52.184;5.406;2024-03-08T05:59:18;3.90;99.90
16643;DHT22;8435;52.184;5.406;2024-03-08T06:01:45;3.90;99.90
16643;DHT22;8435;52.184;5.406;2024-03-08T06:04:12;3.90;99.90
16643;DHT22;8435;52.184;5.406;2024-03-08T06:06:41;3.90;99.90
16643;DHT22;8435;52.184;5.406;2024-03-08T06:09:07;3.90;99.90
16643;DHT22;8435;52.184;5.406;2024-03-08T06:11:37;3.90;99.90
16643;DHT22;8435;52.184;5.406;2024-03-08T06:14:04;3.90;99.90
16643;DHT22;8435;52.184;5.406;2024-03-08T06:16:31;3.90;99.90
16643;DHT22;8435;52.184;5.406;2024-03-08T06:19:01;3.90;99.90
16643;DHT22;8435;52.184;5.406;2024-03-08T06:21:28;3.90;99.90
16643;DHT22;8435;52.184;5.406;2024-03-08T06:23:56;3.90;99.90
16643;DHT22;8435;52.184;5.406;2024-03-08T06:26:23;3.90;99.90
16643;DHT22;8435;52.184;5.406;2024-03-08T06:28:53;3.90;99.90
16643;DHT22;8435;52.184;5.406;2024-03-08T06:31:20;3.90;99.90
16643;DHT22;8435;52.184;5.406;2024-03-08T06:33:47;4.00;99.90
16643;DHT22;8435;52.184;5.406;2024-03-08T06:36:16;4.00;99.90
16643;DHT22;8435;52.184;5.406;2024-03-08T06:38:44;4.10;99.90
16643;DHT22;8435;52.184;5.406;2024-03-08T06:41:13;4.10;99.90
16643;DHT22;8435;52.184;5.406;2024-03-08T06:43:41;4.10;99.90
16643;DHT22;8435;52.184;5.406;2024-03-08T06:46:08;4.20;99.90
16643;DHT22;8435;52.184;5.406;2024-03-08T06:48:35;4.20;99.90
16643;DHT22;8435;52.184;5.406;2024-03-08T06:51:03;4.30;99.90
16643;DHT22;8435;52.184;5.406;2024-03-08T06:53:30;4.30;99.90
16643;DHT22;8435;52.184;5.406;2024-03-08T06:55:57;4.40;99.90
16643;DHT22;8435;52.184;5.406;2024-03-08T06:58:25;4.40;99.90
16643;DHT22;8435;52.184;5.406;2024-03-08T07:00:53;4.40;99.90
16643;DHT22;8435;52.184;5.406;2024-03-08T07:03:24;4.50;99.90
16643;DHT22;8435;52.184;5.406;2024-03-08T07:05:52;4.50;99.90
16643;DHT22;8435;52.184;5.406;2024-03-08T07:08:19;4.50;99.90
16643;DHT22;8435;52.184;5.406;2024-03-08T07:10:47;4.60;99.90
16643;DHT22;8435;52.184;5.406;2024-03-08T07:13:14;4.60;99.90
16643;DHT22;8435;52.184;5.406;2024-03-08T07:15:43;4.60;99.90
16643;DHT22;8435;52.184;5.406;2024-03-08T07:18:11;4.70;99.90
16643;DHT22;8435;52.184;5.406;2024-03-08T07:20:40;4.80;99.90
16643;DHT22;8435;52.184;5.406;2024-03-08T07:23:07;4.90;99.90
16643;DHT22;8435;52.184;5.406;2024-03-08T07:25:36;5.10;99.90
16643;DHT22;8435;52.184;5.406;2024-03-08T07:28:04;5.20;99.90
16643;DHT22;8435;52.184;5.406;2024-03-08T07:30:32;5.40;99.90
16643;DHT22;8435;52.184;5.406;2024-03-08T07:33:17;5.50;99.90
16643;DHT22;8435;52.184;5.406;2024-03-08T07:35:44;5.70;99.90
16643;DHT22;8435;52.184;5.406;2024-03-08T07:38:12;5.80;99.90
16643;DHT22;8435;52.184;5.406;2024-03-08T07:40:40;5.90;99.90
16643;DHT22;8435;52.184;5.406;2024-03-08T07:43:10;6.10;99.90
16643;DHT22;8435;52.184;5.406;2024-03-08T07:45:37;6.20;99.90
16643;DHT22;8435;52.184;5.406;2024-03-08T07:48:04;6.30;99.90
16643;DHT22;8435;52.184;5.406;2024-03-08T07:50:36;6.50;99.90
16643;DHT22;8435;52.184;5.406;2024-03-08T07:53:04;6.60;99.90
16643;DHT22;8435;52.184;5.406;2024-03-08T07:55:32;6.80;99.90
16643;DHT22;8435;52.184;5.406;2024-03-08T07:57:58;6.90;99.60
16643;DHT22;8435;52.184;5.406;2024-03-08T08:00:25;7.10;99.90
16643;DHT22;8435;52.184;5.406;2024-03-08T08:02:53;7.30;99.70
16643;DHT22;8435;52.184;5.406;2024-03-08T08:05:19;7.40;99.90
16643;DHT22;8435;52.184;5.406;2024-03-08T08:07:48;7.60;99.90
16643;DHT22;8435;52.184;5.406;2024-03-08T08:10:15;7.80;99.30
16643;DHT22;8435;52.184;5.406;2024-03-08T08:12:44;8.00;99.80
16643;DHT22;8435;52.184;5.406;2024-03-08T08:15:12;8.10;99.30
16643;DHT22;8435;52.184;5.406;2024-03-08T08:17:40;8.30;98.80
16643;DHT22;8435;52.184;5.406;2024-03-08T08:20:08;8.50;98.10
16643;DHT22;8435;52.184;5.406;2024-03-08T08:22:37;8.60;98.20
16643;DHT22;8435;52.184;5.406;2024-03-08T08:25:06;8.70;98.10
16643;DHT22;8435;52.184;5.406;2024-03-08T08:27:33;8.80;98.30
16643;DHT22;8435;52.184;5.406;2024-03-08T08:30:02;9.00;97.00
16643;DHT22;8435;52.184;5.406;2024-03-08T08:32:33;9.00;96.30
16643;DHT22;8435;52.184;5.406;2024-03-08T08:35:00;9.10;96.80
16643;DHT22;8435;52.184;5.406;2024-03-08T08:37:28;9.20;96.50
16643;DHT22;8435;52.184;5.406;2024-03-08T08:39:55;9.30;96.30
16643;DHT22;8435;52.184;5.406;2024-03-08T08:42:23;9.30;96.10
16643;DHT22;8435;52.184;5.406;2024-03-08T08:44:51;9.30;96.10
16643;DHT22;8435;52.184;5.406;2024-03-08T08:47:17;9.40;95.90
16643;DHT22;8435;52.184;5.406;2024-03-08T08:49:44;9.40;96.00
16643;DHT22;8435;52.184;5.406;2024-03-08T08:52:12;9.50;96.00
16643;DHT22;8435;52.184;5.406;2024-03-08T08:54:41;9.50;96.10
16643;DHT22;8435;52.184;5.406;2024-03-08T08:57:08;9.50;95.40
16643;DHT22;8435;52.184;5.406;2024-03-08T08:59:36;9.70;95.20
16643;DHT22;8435;52.184;5.406;2024-03-08T09:02:05;9.70;95.70
16643;DHT22;8435;52.184;5.406;2024-03-08T09:04:32;9.80;95.40
16643;DHT22;8435;52.184;5.406;2024-03-08T09:06:58;9.90;96.10
16643;DHT22;8435;52.184;5.406;2024-03-08T09:09:26;10.00;95.70
16643;DHT22;8435;52.184;5.406;2024-03-08T09:11:55;10.10;95.90
16643;DHT22;8435;52.184;5.406;2024-03-08T09:14:21;10.30;95.90
16643;DHT22;8435;52.184;5.406;2024-03-08T09:16:50;10.30;94.50
16643;DHT22;8435;52.184;5.406;2024-03-08T09:19:16;10.40;93.80
16643;DHT22;8435;52.184;5.406;2024-03-08T09:21:45;10.50;93.80
16643;DHT22;8435;52.184;5.406;2024-03-08T09:24:12;10.50;93.90
16643;DHT22;8435;52.184;5.406;2024-03-08T09:26:39;10.60;94.00
16643;DHT22;8435;52.184;5.406;2024-03-08T09:29:07;10.60;94.00
16643;DHT22;8435;52.184;5.406;2024-03-08T09:31:36;10.60;94.20
16643;DHT22;8435;52.184;5.406;2024-03-08T09:34:04;10.60;94.00
16643;DHT22;8435;52.184;5.406;2024-03-08T09:36:33;10.50;94.00
16643;DHT22;8435;52.184;5.406;2024-03-08T09:39:00;10.40;93.80
16643;DHT22;8435;52.184;5.406;2024-03-08T09:41:28;10.30;94.30
16643;DHT22;8435;52.184;5.406;2024-03-08T09:43:56;10.20;94.50
16643;DHT22;8435;52.184;5.406;2024-03-08T09:46:25;10.10;94.50
16643;DHT22;8435;52.184;5.406;2024-03-08T09:48:52;10.10;95.00
16643;DHT22;8435;52.184;5.406;2024-03-08T09:51:22;10.00;94.70
16643;DHT22;8435;52.184;5.406;2024-03-08T09:53:52;10.00;95.30
16643;DHT22;8435;52.184;5.406;2024-03-08T09:56:19;9.90;95.50
16643;DHT22;8435;52.184;5.406;2024-03-08T09:58:46;9.90;95.30
16643;DHT22;8435;52.184;5.406;2024-03-08T10:01:40;9.80;95.20
16643;DHT22;8435;52.184;5.406;2024-03-08T10:04:07;9.80;95.30
16643;DHT22;8435;52.184;5.406;2024-03-08T10:06:37;9.80;95.00
16643;DHT22;8435;52.184;5.406;2024-03-08T10:09:03;9.80;94.60
16643;DHT22;8435;52.184;5.406;2024-03-08T10:11:33;9.80;94.90
16643;DHT22;8435;52.184;5.406;2024-03-08T10:14:00;9.80;95.50
16643;DHT22;8435;52.184;5.406;2024-03-08T10:16:28;9.80;94.90
16643;DHT22;8435;52.184;5.406;2024-03-08T10:18:56;9.70;94.90
16643;DHT22;8435;52.184;5.406;2024-03-08T10:21:23;9.80;95.10
16643;DHT22;8435;52.184;5.406;2024-03-08T10:23:52;9.80;95.00
16643;DHT22;8435;52.184;5.406;2024-03-08T10:26:19;9.80;94.80
16643;DHT22;8435;52.184;5.406;2024-03-08T10:28:48;9.80;95.10
16643;DHT22;8435;52.184;5.406;2024-03-08T10:31:15;9.90;95.00
16643;DHT22;8435;52.184;5.406;2024-03-08T10:33:42;10.00;95.60
16643;DHT22;8435;52.184;5.406;2024-03-08T10:36:10;10.00;95.10
16643;DHT22;8435;52.184;5.406;2024-03-08T10:38:39;10.10;95.10
16643;DHT22;8435;52.184;5.406;2024-03-08T10:41:09;10.10;95.10
16643;DHT22;8435;52.184;5.406;2024-03-08T10:43:45;10.20;95.10
16643;DHT22;8435;52.184;5.406;2024-03-08T10:46:21;10.30;95.20
16643;DHT22;8435;52.184;5.406;2024-03-08T10:48:50;10.30;94.60
16643;DHT22;8435;52.184;5.406;2024-03-08T10:51:19;10.40;95.30
16643;DHT22;8435;52.184;5.406;2024-03-08T10:53:46;10.40;94.90
16643;DHT22;8435;52.184;5.406;2024-03-08T10:56:15;10.50;94.70
16643;DHT22;8435;52.184;5.406;2024-03-08T10:58:42;10.50;94.30
16643;DHT22;8435;52.184;5.406;2024-03-08T11:01:10;10.50;93.70
16643;DHT22;8435;52.184;5.406;2024-03-08T11:03:44;10.60;93.90
16643;DHT22;8435;52.184;5.406;2024-03-08T11:06:15;10.60;93.10
16643;DHT22;8435;52.184;5.406;2024-03-08T11:08:42;10.60;94.10
16643;DHT22;8435;52.184;5.406;2024-03-08T11:11:26;10.60;94.30
16643;DHT22;8435;52.184;5.406;2024-03-08T11:13:56;10.70;94.20
16643;DHT22;8435;52.184;5.406;2024-03-08T11:16:40;10.70;93.80
16643;DHT22;8435;52.184;5.406;2024-03-08T11:19:26;10.70;93.10
16643;DHT22;8435;52.184;5.406;2024-03-08T11:21:58;10.80;93.10
16643;DHT22;8435;52.184;5.406;2024-03-08T11:24:25;10.80;93.30
16643;DHT22;8435;52.184;5.406;2024-03-08T11:26:57;10.90;93.90
16643;DHT22;8435;52.184;5.406;2024-03-08T11:29:38;11.00;93.80
16643;DHT22;8435;52.184;5.406;2024-03-08T11:32:10;11.00;93.40
16643;DHT22;8435;52.184;5.406;2024-03-08T11:34:39;11.00;93.60
16643;DHT22;8435;52.184;5.406;2024-03-08T11:37:11;11.00;93.80
16643;DHT22;8435;52.184;5.406;2024-03-08T11:39:39;11.00;93.00
16643;DHT22;8435;52.184;5.406;2024-03-08T11:42:08;11.10;93.70
16643;DHT22;8435;52.184;5.406;2024-03-08T11:44:36;11.10;93.00
16643;DHT22;8435;52.184;5.406;2024-03-08T11:47:08;11.10;93.20
16643;DHT22;8435;52.184;5.406;2024-03-08T11:49:35;11.10;92.60
16643;DHT22;8435;52.184;5.406;2024-03-08T11:52:03;11.20;93.30
16643;DHT22;8435;52.184;5.406;2024-03-08T11:54:30;11.20;92.70
16643;DHT22;8435;52.184;5.406;2024-03-08T11:56:57;11.30;93.30
16643;DHT22;8435;52.184;5.406;2024-03-08T11:59:27;11.30;92.30
16643;DHT22;8435;52.184;5.406;2024-03-08T12:02:02;11.30;92.40
16643;DHT22;8435;52.184;5.406;2024-03-08T12:04:30;11.40;91.80
16643;DHT22;8435;52.184;5.406;2024-03-08T12:06:59;11.40;92.30
16643;DHT22;8435;52.184;5.406;2024-03-08T12:09:27;11.40;91.20
16643;DHT22;8435;52.184;5.406;2024-03-08T12:11:54;11.50;92.30
16643;DHT22;8435;52.184;5.406;2024-03-08T12:14:21;11.60;92.00
16643;DHT22;8435;52.184;5.406;2024-03-08T12:16:51;11.60;92.40
16643;DHT22;8435;52.184;5.406;2024-03-08T12:19:18;11.70;91.00
16643;DHT22;8435;52.184;5.406;2024-03-08T12:21:45;11.70;91.30
16643;DHT22;8435;52.184;5.406;2024-03-08T12:24:15;11.80;89.60
16643;DHT22;8435;52.184;5.406;2024-03-08T12:26:45;11.80;88.60
16643;DHT22;8435;52.184;5.406;2024-03-08T12:29:21;11.80;88.80
16643;DHT22;8435;52.184;5.406;2024-03-08T12:31:51;11.80;87.00
16643;DHT22;8435;52.184;5.406;2024-03-08T12:34:19;11.90;87.00
16643;DHT22;8435;52.184;5.406;2024-03-08T12:36:46;11.90;87.10
16643;DHT22;8435;52.184;5.406;2024-03-08T12:39:17;11.90;88.10
16643;DHT22;8435;52.184;5.406;2024-03-08T12:41:48;11.90;88.40
16643;DHT22;8435;52.184;5.406;2024-03-08T12:44:15;11.90;86.80
16643;DHT22;8435;52.184;5.406;2024-03-08T12:46:44;12.00;87.50
16643;DHT22;8435;52.184;5.406;2024-03-08T12:49:12;12.00;87.80
16643;DHT22;8435;52.184;5.406;2024-03-08T12:51:42;12.00;88.60
16643;DHT22;8435;52.184;5.406;2024-03-08T12:54:11;12.10;88.20
16643;DHT22;8435;52.184;5.406;2024-03-08T12:56:38;12.10;87.50
16643;DHT22;8435;52.184;5.406;2024-03-08T12:59:06;12.20;87.20
16643;DHT22;8435;52.184;5.406;2024-03-08T13:01:34;12.20;87.90
16643;DHT22;8435;52.184;5.406;2024-03-08T13:04:03;12.20;86.80
16643;DHT22;8435;52.184;5.406;2024-03-08T13:06:33;12.10;85.40
16643;DHT22;8435;52.184;5.406;2024-03-08T13:09:00;12.20;84.90
16643;DHT22;8435;52.184;5.406;2024-03-08T13:11:31;12.30;86.50
16643;DHT22;8435;52.184;5.406;2024-03-08T13:14:02;12.30;86.20
16643;DHT22;8435;52.184;5.406;2024-03-08T13:16:29;12.30;87.20
16643;DHT22;8435;52.184;5.406;2024-03-08T13:18:56;12.30;88.40
16643;DHT22;8435;52.184;5.406;2024-03-08T13:21:23;12.30;88.90
16643;DHT22;8435;52.184;5.406;2024-03-08T13:23:52;12.20;86.20
16643;DHT22;8435;52.184;5.406;2024-03-08T13:26:20;12.30;85.10
16643;DHT22;8435;52.184;5.406;2024-03-08T13:28:48;12.40;83.90
16643;DHT22;8435;52.184;5.406;2024-03-08T13:31:19;12.40;84.30
16643;DHT22;8435;52.184;5.406;2024-03-08T13:33:45;12.40;85.80
16643;DHT22;8435;52.184;5.406;2024-03-08T13:36:13;12.40;86.30
16643;DHT22;8435;52.184;5.406;2024-03-08T13:38:42;12.40;86.30
16643;DHT22;8435;52.184;5.406;2024-03-08T13:41:11;12.40;85.00
16643;DHT22;8435;52.184;5.406;2024-03-08T13:43:40;12.40;83.70
16643;DHT22;8435;52.184;5.406;2024-03-08T13:46:07;12.40;84.70
16643;DHT22;8435;52.184;5.406;2024-03-08T13:48:35;12.40;84.40
16643;DHT22;8435;52.184;5.406;2024-03-08T13:51:04;12.40;85.90
16643;DHT22;8435;52.184;5.406;2024-03-08T13:53:31;12.40;85.20
16643;DHT22;8435;52.184;5.406;2024-03-08T13:55:58;12.40;86.10
16643;DHT22;8435;52.184;5.406;2024-03-08T13:58:27;12.40;84.90
16643;DHT22;8435;52.184;5.406;2024-03-08T14:00:54;12.50;84.40
16643;DHT22;8435;52.184;5.406;2024-03-08T14:03:21;12.50;84.80
16643;DHT22;8435;52.184;5.406;2024-03-08T14:05:49;12.50;83.30
16643;DHT22;8435;52.184;5.406;2024-03-08T14:08:15;12.50;84.60
16643;DHT22;8435;52.184;5.406;2024-03-08T14:10:53;12.50;85.60
16643;DHT22;8435;52.184;5.406;2024-03-08T14:13:20;12.50;84.20
16643;DHT22;8435;52.184;5.406;2024-03-08T14:15:48;12.50;85.20
16643;DHT22;8435;52.184;5.406;2024-03-08T14:18:17;12.50;84.30
16643;DHT22;8435;52.184;5.406;2024-03-08T14:20:44;12.50;84.10
16643;DHT22;8435;52.184;5.406;2024-03-08T14:23:12;12.50;84.20
16643;DHT22;8435;52.184;5.406;2024-03-08T14:25:38;12.50;84.30
16643;DHT22;8435;52.184;5.406;2024-03-08T14:28:05;12.50;83.80
16643;DHT22;8435;52.184;5.406;2024-03-08T14:30:33;12.50;82.70
16643;DHT22;8435;52.184;5.406;2024-03-08T14:33:05;12.50;84.30
16643;DHT22;8435;52.184;5.406;2024-03-08T14:35:34;12.50;84.20
16643;DHT22;8435;52.184;5.406;2024-03-08T14:38:01;12.60;85.00
16643;DHT22;8435;52.184;5.406;2024-03-08T14:40:28;12.60;83.80
16643;DHT22;8435;52.184;5.406;2024-03-08T14:42:56;12.50;83.40
16643;DHT22;8435;52.184;5.406;2024-03-08T14:45:23;12.50;83.00
16643;DHT22;8435;52.184;5.406;2024-03-08T14:47:52;12.50;84.80
16643;DHT22;8435;52.184;5.406;2024-03-08T14:50:22;12.50;84.80
16643;DHT22;8435;52.184;5.406;2024-03-08T14:52:49;12.60;84.10
16643;DHT22;8435;52.184;5.406;2024-03-08T14:55:16;12.60;82.90
16643;DHT22;8435;52.184;5.406;2024-03-08T14:57:45;12.50;83.00
16643;DHT22;8435;52.184;5.406;2024-03-08T15:00:13;12.60;84.20
16643;DHT22;8435;52.184;5.406;2024-03-08T15:02:44;12.60;83.70
16643;DHT22;8435;52.184;5.406;2024-03-08T15:05:11;12.50;82.70
16643;DHT22;8435;52.184;5.406;2024-03-08T15:07:40;12.50;81.80
16643;DHT22;8435;52.184;5.406;2024-03-08T15:10:08;12.50;82.10
16643;DHT22;8435;52.184;5.406;2024-03-08T15:12:40;12.50;81.60
16643;DHT22;8435;52.184;5.406;2024-03-08T15:15:09;12.50;83.70
16643;DHT22;8435;52.184;5.406;2024-03-08T15:17:42;12.50;84.20
16643;DHT22;8435;52.184;5.406;2024-03-08T15:20:09;12.60;83.80
16643;DHT22;8435;52.184;5.406;2024-03-08T15:22:47;12.50;84.30
16643;DHT22;8435;52.184;5.406;2024-03-08T15:25:14;12.50;82.50
16643;DHT22;8435;52.184;5.406;2024-03-08T15:27:46;12.40;82.60
16643;DHT22;8435;52.184;5.406;2024-03-08T15:30:14;12.40;83.20
16643;DHT22;8435;52.184;5.406;2024-03-08T15:32:44;12.40;84.40
16643;DHT22;8435;52.184;5.406;2024-03-08T15:35:11;12.40;83.90
16643;DHT22;8435;52.184;5.406;2024-03-08T15:37:40;12.50;84.50
16643;DHT22;8435;52.184;5.406;2024-03-08T15:40:10;12.40;84.80
16643;DHT22;8435;52.184;5.406;2024-03-08T15:42:47;12.40;85.40
16643;DHT22;8435;52.184;5.406;2024-03-08T15:45:14;12.40;86.00
16643;DHT22;8435;52.184;5.406;2024-03-08T15:47:42;12.40;84.50
16643;DHT22;8435;52.184;5.406;2024-03-08T15:50:10;12.40;84.70
16643;DHT22;8435;52.184;5.406;2024-03-08T15:52:38;12.50;84.00
16643;DHT22;8435;52.184;5.406;2024-03-08T15:55:07;12.40;83.70
16643;DHT22;8435;52.184;5.406;2024-03-08T15:57:35;12.40;83.10
16643;DHT22;8435;52.184;5.406;2024-03-08T16:00:03;12.30;83.30
16643;DHT22;8435;52.184;5.406;2024-03-08T16:02:39;12.30;84.00